Time;durP1;ratioP1;P1;durP2;ratioP2;P2;SDS_P1;SDS_P2;PMS_P1;PMS_P2;Temp;Humidity;BMP_temperature;BMP_pressure;BME280_temperature;BME280_humidity;BME280_pressure;Samples;Min_cycle;Max_cycle;Signal;HPM_P1;HPM_P2
2023/06/28 00:01:30;;;;;;;3.20;1.13;;;20.40;76.60;;;;;;5032811;28;20763;-75
2023/06/28 00:03:56;;;;;;;4.33;0.90;;;20.40;77.30;;;;;;5034034;28;20171;-75
2023/06/28 00:06:22;;;;;;;3.93;1.00;;;20.40;77.90;;;;;;5034039;28;20765;-75
2023/06/28 00:08:47;;;;;;;4.07;1.00;;;20.40;78.40;;;;;;5052014;28;20718;-75
2023/06/28 00:11:13;;;;;;;3.90;1.20;;;20.40;78.80;;;;;;5051527;28;20164;-75
2023/06/28 00:13:39;;;;;;;3.77;1.70;;;20.30;79.30;;;;;;5016699;28;20203;-75
2023/06/28 00:16:05;;;;;;;2.77;0.97;;;20.30;79.80;;;;;;5017490;28;20207;-75
2023/06/28 00:18:32;;;;;;;3.23;1.10;;;20.30;79.90;;;;;;5051181;28;20504;-74
2023/06/28 00:20:58;;;;;;;3.50;0.90;;;20.30;80.40;;;;;;5032744;28;20188;-74
2023/06/28 00:23:24;;;;;;;3.53;1.40;;;20.30;80.50;;;;;;5050531;28;20607;-74
2023/06/28 00:25:50;;;;;;;4.33;1.77;;;20.30;81.10;;;;;;5033530;28;20263;-74
2023/06/28 00:28:16;;;;;;;5.33;1.00;;;20.30;81.50;;;;;;5033576;28;20192;-74
2023/06/28 00:30:41;;;;;;;2.80;1.00;;;20.30;82.00;;;;;;5032905;28;20169;-74
2023/06/28 00:33:07;;;;;;;6.13;0.97;;;20.30;82.20;;;;;;5050738;28;20611;-74
2023/06/28 00:35:33;;;;;;;4.60;0.90;;;20.30;82.60;;;;;;5016650;28;20169;-74
2023/06/28 00:37:58;;;;;;;2.10;1.00;;;20.30;82.90;;;;;;5051218;28;20192;-74
2023/06/28 00:40:26;;;;;;;2.67;0.90;;;20.30;83.20;;;;;;5016877;28;20206;-74
2023/06/28 00:42:51;;;;;;;2.73;1.00;;;20.30;83.40;;;;;;5032762;28;20710;-74
2023/06/28 00:45:17;;;;;;;5.30;1.13;;;20.30;83.60;;;;;;5017497;28;20188;-74
2023/06/28 00:47:43;;;;;;;4.00;1.00;;;20.30;84.10;;;;;;5033162;28;20204;-75
2023/06/28 00:50:09;;;;;;;3.43;1.10;;;20.30;84.30;;;;;;5032558;28;20200;-76
2023/06/28 00:52:36;;;;;;;2.30;0.80;;;20.30;84.60;;;;;;5049508;28;20697;-75
2023/06/28 00:55:01;;;;;;;1.97;0.80;;;20.30;84.70;;;;;;5032939;28;20575;-75
2023/06/28 00:57:27;;;;;;;2.60;0.90;;;20.30;85.00;;;;;;5032286;28;20666;-76
2023/06/28 00:59:55;;;;;;;3.47;0.90;;;20.30;85.10;;;;;;5050769;28;20230;-76
2023/06/28 01:02:22;;;;;;;3.00;1.07;;;20.30;85.20;;;;;;5013798;28;20718;-75
2023/06/28 01:04:49;;;;;;;5.30;1.10;;;20.30;85.70;;;;;;5031449;28;20678;-76
2023/06/28 01:07:16;;;;;;;2.53;0.80;;;20.30;86.00;;;;;;5032392;28;20196;-75
2023/06/28 01:09:42;;;;;;;1.60;0.70;;;20.30;86.10;;;;;;5050293;28;20579;-75
2023/06/28 01:12:08;;;;;;;2.00;0.80;;;20.30;86.20;;;;;;5049645;28;20698;-75
2023/06/28 01:14:34;;;;;;;1.90;0.90;;;20.30;86.60;;;;;;5023400;28;20646;-75
2023/06/28 01:17:16;;;;;;;3.83;0.87;;;20.30;86.60;;;;;;5050937;28;20912;-76
2023/06/28 01:19:41;;;;;;;2.10;0.80;;;20.30;86.90;;;;;;5016170;28;21185;-75
2023/06/28 01:22:09;;;;;;;4.10;1.87;;;20.20;87.10;;;;;;5032500;28;20635;-75
2023/06/28 01:24:36;;;;;;;3.40;1.13;;;20.20;87.20;;;;;;5016160;28;20181;-75
2023/06/28 01:27:02;;;;;;;1.60;0.80;;;20.10;87.10;;;;;;5050101;28;20619;-75
2023/06/28 01:29:29;;;;;;;4.20;0.90;;;20.10;87.40;;;;;;5016010;28;20587;-75
2023/06/28 01:31:56;;;;;;;2.10;0.90;;;20.10;87.50;;;;;;5031204;28;20698;-75
2023/06/28 01:34:26;;;;;;;2.43;0.90;;;20.00;87.90;;;;;;5032113;28;20990;-75
2023/06/28 01:36:54;;;;;;;2.97;0.97;;;20.00;88.20;;;;;;5031418;28;20611;-75
2023/06/28 01:39:22;;;;;;;4.33;1.20;;;19.90;88.40;;;;;;5032461;28;20588;-75
2023/06/28 01:41:49;;;;;;;4.00;1.00;;;19.90;88.70;;;;;;5030946;28;20711;-76
2023/06/28 01:44:16;;;;;;;2.33;0.87;;;19.80;89.90;;;;;;5049984;28;20625;-75
2023/06/28 01:46:44;;;;;;;3.20;1.27;;;19.80;89.40;;;;;;5031809;28;20597;-75
2023/06/28 01:49:10;;;;;;;3.60;1.00;;;19.70;89.60;;;;;;4999260;28;20626;-75
2023/06/28 01:51:36;;;;;;;4.07;0.80;;;19.70;90.00;;;;;;5014393;28;20591;-75
2023/06/28 01:54:03;;;;;;;3.13;1.17;;;19.70;90.20;;;;;;5031591;28;20618;-75
2023/06/28 01:56:29;;;;;;;3.03;1.00;;;19.60;90.30;;;;;;5015869;28;20575;-75
2023/06/28 01:58:55;;;;;;;2.50;0.90;;;19.60;90.50;;;;;;5018639;28;20615;-75
2023/06/28 02:01:21;;;;;;;4.07;1.00;;;19.50;90.60;;;;;;5049335;28;20643;-75
2023/06/28 02:03:47;;;;;;;3.00;0.80;;;19.50;90.80;;;;;;5031858;28;20646;-75
2023/06/28 02:06:14;;;;;;;4.07;1.50;;;19.50;91.00;;;;;;5031559;28;20576;-75
2023/06/28 02:08:40;;;;;;;2.70;0.90;;;19.40;90.90;;;;;;5032102;28;20215;-75
2023/06/28 02:11:06;;;;;;;3.30;1.30;;;19.40;91.10;;;;;;5031336;28;21190;-75
2023/06/28 02:13:32;;;;;;;3.00;0.87;;;19.30;91.20;;;;;;5015825;28;20599;-75
2023/06/28 02:15:58;;;;;;;2.17;0.80;;;19.30;91.30;;;;;;5035740;28;20169;-75
2023/06/28 02:18:26;;;;;;;3.40;1.30;;;19.20;91.40;;;;;;5054080;28;20260;-75
2023/06/28 02:20:52;;;;;;;1.87;0.80;;;19.10;91.50;;;;;;5035101;28;20915;-75
2023/06/28 02:23:20;;;;;;;3.10;1.00;;;19.10;91.70;;;;;;5053244;28;20615;-75
2023/06/28 02:25:45;;;;;;;3.00;0.90;;;19.10;91.80;;;;;;5053346;28;20583;-75
2023/06/28 02:28:11;;;;;;;2.70;1.00;;;19.00;92.00;;;;;;5053328;28;20622;-75
2023/06/28 02:30:37;;;;;;;4.63;1.20;;;19.00;92.10;;;;;;5035317;28;20181;-75
2023/06/28 02:33:03;;;;;;;2.10;1.07;;;18.90;92.20;;;;;;5002139;28;20305;-75
2023/06/28 02:35:28;;;;;;;5.07;1.10;;;18.90;92.40;;;;;;5054704;28;20161;-75
2023/06/28 02:37:54;;;;;;;2.77;1.10;;;18.90;92.60;;;;;;5019199;28;20230;-76
2023/06/28 02:40:20;;;;;;;3.60;1.33;;;18.80;92.70;;;;;;5019058;28;20177;-76
2023/06/28 02:42:46;;;;;;;2.37;1.10;;;18.80;92.80;;;;;;5018084;28;20205;-75
2023/06/28 02:45:12;;;;;;;5.80;1.10;;;18.80;92.90;;;;;;5034927;28;20594;-75
2023/06/28 02:47:38;;;;;;;4.00;1.10;;;18.80;92.90;;;;;;5002691;28;20666;-76
2023/06/28 02:50:05;;;;;;;2.93;0.97;;;18.70;93.10;;;;;;5018666;28;20721;-75
2023/06/28 02:52:33;;;;;;;3.70;1.40;;;18.80;93.20;;;;;;5034021;28;20639;-75
2023/06/28 02:55:01;;;;;;;4.73;1.03;;;18.80;93.30;;;;;;5018250;28;20610;-75
2023/06/28 02:57:27;;;;;;;3.50;1.03;;;18.80;93.30;;;;;;5018476;28;20595;-75
2023/06/28 02:59:58;;;;;;;3.20;0.83;;;18.80;93.40;;;;;;5035395;28;20694;-75
2023/06/28 03:02:24;;;;;;;5.10;1.10;;;18.80;93.40;;;;;;5033825;28;20634;-75
2023/06/28 03:04:51;;;;;;;5.10;1.60;;;18.80;93.50;;;;;;5017855;28;20230;-75
2023/06/28 03:07:18;;;;;;;3.33;1.10;;;18.80;93.50;;;;;;5017915;28;20639;-75
2023/06/28 03:09:44;;;;;;;2.30;1.03;;;18.80;93.60;;;;;;5018331;28;20572;-75
2023/06/28 03:12:10;;;;;;;3.07;1.10;;;18.80;93.70;;;;;;5018223;28;20615;-75
2023/06/28 03:14:37;;;;;;;2.30;1.03;;;18.80;93.70;;;;;;5036915;28;20579;-75
2023/06/28 03:17:04;;;;;;;3.90;0.90;;;18.80;93.90;;;;;;5017899;28;20595;-75
2023/06/28 03:19:30;;;;;;;4.03;0.97;;;18.80;94.00;;;;;;5017806;28;20563;-75
2023/06/28 03:21:55;;;;;;;1.90;0.70;;;18.80;94.10;;;;;;5017461;28;20611;-75
2023/06/28 03:24:21;;;;;;;1.93;0.90;;;18.90;94.20;;;;;;5034343;28;20571;-75
2023/06/28 03:26:47;;;;;;;3.40;1.33;;;18.90;94.30;;;;;;5033622;28;20580;-76
2023/06/28 03:29:12;;;;;;;4.60;1.00;;;18.90;94.30;;;;;;5001220;28;20220;-76
2023/06/28 03:31:39;;;;;;;3.00;0.90;;;19.00;94.30;;;;;;4999573;28;20170;-76
2023/06/28 03:34:05;;;;;;;3.97;1.43;;;19.00;94.40;;;;;;5016902;28;20611;-76
2023/06/28 03:36:32;;;;;;;4.57;1.30;;;19.00;94.50;;;;;;5014744;28;20592;-76
2023/06/28 03:38:58;;;;;;;2.20;1.30;;;19.00;94.50;;;;;;5032247;28;20752;-76
2023/06/28 03:41:26;;;;;;;3.80;0.87;;;19.10;94.60;;;;;;4997350;28;20943;-76
2023/06/28 03:43:52;;;;;;;4.53;1.23;;;19.10;94.70;;;;;;5013951;28;20584;-76
2023/06/28 03:46:18;;;;;;;2.53;1.20;;;19.10;94.70;;;;;;5014027;28;20948;-76
2023/06/28 03:48:44;;;;;;;4.20;2.00;;;19.20;94.90;;;;;;5001098;28;20257;-76
2023/06/28 03:51:10;;;;;;;5.57;1.33;;;19.20;95.00;;;;;;4998454;28;20257;-76
2023/06/28 03:53:36;;;;;;;3.80;1.40;;;19.20;95.00;;;;;;5017120;28;20722;-76
2023/06/28 03:56:02;;;;;;;5.90;1.33;;;19.30;95.20;;;;;;5017017;28;20173;-76
2023/06/28 03:58:29;;;;;;;7.70;1.30;;;19.30;95.30;;;;;;5016986;28;20594;-76
2023/06/28 04:00:55;;;;;;;3.43;1.10;;;19.40;95.40;;;;;;5032933;28;20592;-76
2023/06/28 04:03:21;;;;;;;2.00;1.17;;;19.50;95.40;;;;;;5033455;28;20200;-76
2023/06/28 04:05:46;;;;;;;5.50;1.20;;;19.50;95.40;;;;;;5017380;28;20579;-76
2023/06/28 04:08:12;;;;;;;2.37;0.90;;;19.60;95.50;;;;;;5033093;28;20212;-77
2023/06/28 04:10:38;;;;;;;3.47;1.20;;;19.60;95.40;;;;;;5033252;28;20177;-76
2023/06/28 04:13:04;;;;;;;5.93;1.13;;;19.70;95.40;;;;;;5016543;28;20661;-76
2023/06/28 04:15:29;;;;;;;3.00;1.07;;;19.70;95.30;;;;;;5051613;28;20542;-76
2023/06/28 04:17:55;;;;;;;5.63;1.43;;;19.80;95.30;;;;;;5033486;28;20599;-77
2023/06/28 04:20:21;;;;;;;3.73;1.00;;;19.80;95.20;;;;;;5034013;28;20183;-76
2023/06/28 04:22:47;;;;;;;7.30;1.30;;;19.80;95.10;;;;;;5049887;28;20279;-76
2023/06/28 04:25:13;;;;;;;5.40;0.87;;;19.90;95.00;;;;;;5035502;28;21131;-76
2023/06/28 04:27:38;;;;;;;2.20;0.70;;;19.90;94.90;;;;;;5039287;28;20761;-76
2023/06/28 04:30:04;;;;;;;2.90;1.00;;;19.90;94.80;;;;;;5033023;28;20256;-76
2023/06/28 04:32:31;;;;;;;3.60;0.90;;;20.00;94.80;;;;;;5032558;28;20200;-76
2023/06/28 04:34:58;;;;;;;1.70;0.90;;;20.00;94.80;;;;;;5050703;28;20571;-76
2023/06/28 04:37:27;;;;;;;3.17;0.83;;;20.00;94.70;;;;;;5016987;28;20641;-76
2023/06/28 04:40:03;;;;;;;3.27;1.03;;;20.00;94.60;;;;;;5033054;28;20584;-76
2023/06/28 04:42:29;;;;;;;2.83;0.90;;;20.10;94.60;;;;;;5032510;28;20649;-76
2023/06/28 04:45:01;;;;;;;3.53;0.83;;;20.20;94.80;;;;;;5016078;28;20592;-76
2023/06/28 04:47:28;;;;;;;2.27;0.80;;;20.20;94.80;;;;;;5033360;28;21141;-76
2023/06/28 04:49:54;;;;;;;3.80;1.03;;;20.30;94.90;;;;;;5050505;28;20845;-76
2023/06/28 04:52:21;;;;;;;3.40;0.90;;;20.40;94.80;;;;;;5031434;28;20611;-76
2023/06/28 04:54:47;;;;;;;2.00;0.90;;;20.40;94.80;;;;;;5032965;28;20583;-76
2023/06/28 04:57:14;;;;;;;2.57;0.90;;;20.50;94.80;;;;;;5032353;28;20941;-77
2023/06/28 04:59:40;;;;;;;2.43;0.90;;;20.60;94.80;;;;;;5016315;28;20582;-76
2023/06/28 05:02:06;;;;;;;3.53;0.97;;;20.70;94.80;;;;;;5017002;28;20631;-76
2023/06/28 05:04:32;;;;;;;5.30;0.80;;;20.70;94.70;;;;;;5050391;28;20579;-75
2023/06/28 05:07:06;;;;;;;3.57;1.13;;;20.80;94.60;;;;;;5050476;28;20235;-76
2023/06/28 05:09:33;;;;;;;6.40;0.80;;;20.90;94.40;;;;;;5032293;28;20599;-76
2023/06/28 05:12:00;;;;;;;3.60;0.90;;;21.00;94.20;;;;;;5031773;28;20608;-76
2023/06/28 05:14:30;;;;;;;2.83;0.90;;;21.00;94.00;;;;;;5031618;28;20587;-76
2023/06/28 05:16:56;;;;;;;6.47;1.10;;;21.00;93.80;;;;;;5032215;28;20638;-77
2023/06/28 05:19:23;;;;;;;2.17;0.90;;;21.00;93.70;;;;;;5015556;28;20584;-77
2023/06/28 05:21:49;;;;;;;3.63;1.00;;;21.10;93.90;;;;;;5049377;28;20607;-76
2023/06/28 05:24:16;;;;;;;2.20;0.90;;;21.10;94.00;;;;;;4999282;28;20686;-75
2023/06/28 05:26:42;;;;;;;2.67;1.03;;;21.10;94.10;;;;;;5032580;28;20931;-75
2023/06/28 05:29:08;;;;;;;2.83;0.80;;;21.10;94.20;;;;;;5032051;28;20588;-76
2023/06/28 05:31:37;;;;;;;4.97;0.97;;;21.10;94.30;;;;;;5049508;28;21114;-76
2023/06/28 05:34:02;;;;;;;4.33;0.93;;;21.20;94.50;;;;;;5049346;28;20583;-75
2023/06/28 05:36:28;;;;;;;2.33;1.20;;;21.20;94.50;;;;;;5032079;28;20592;-75
2023/06/28 05:38:55;;;;;;;2.40;0.97;;;21.20;94.60;;;;;;5015942;28;20173;-75
2023/06/28 05:41:21;;;;;;;2.23;0.90;;;21.30;94.70;;;;;;5049021;28;20565;-75
2023/06/28 05:43:48;;;;;;;2.90;1.10;;;21.30;94.70;;;;;;5031942;28;20695;-78
2023/06/28 05:46:14;;;;;;;2.77;1.10;;;21.40;94.70;;;;;;5015617;28;20229;-78
2023/06/28 05:48:39;;;;;;;4.17;1.10;;;21.40;94.60;;;;;;5031507;28;21075;-78
2023/06/28 05:51:12;;;;;;;2.50;1.07;;;21.40;94.50;;;;;;5048467;28;20590;-77
2023/06/28 05:53:38;;;;;;;8.20;1.30;;;21.50;94.60;;;;;;5031836;28;20200;-77
2023/06/28 05:56:05;;;;;;;3.93;1.17;;;21.50;94.60;;;;;;5031406;28;20592;-77
2023/06/28 05:58:31;;;;;;;3.67;0.90;;;21.50;94.60;;;;;;5015391;28;20592;-77
2023/06/28 06:00:57;;;;;;;5.03;1.10;;;21.50;94.60;;;;;;5014779;28;20596;-77
2023/06/28 06:03:23;;;;;;;4.30;1.67;;;21.50;94.60;;;;;;5048859;28;20686;-77
2023/06/28 06:05:49;;;;;;;4.17;0.90;;;21.50;94.60;;;;;;5031430;28;20195;-77
2023/06/28 06:08:15;;;;;;;3.70;1.23;;;21.50;94.70;;;;;;5030844;28;20653;-78
2023/06/28 06:10:41;;;;;;;3.13;1.03;;;21.50;94.70;;;;;;5031400;28;21016;-78
2023/06/28 06:13:07;;;;;;;2.10;0.80;;;21.50;94.80;;;;;;5048579;28;20208;-78
2023/06/28 06:15:33;;;;;;;2.80;1.00;;;21.50;94.90;;;;;;5035728;28;20586;-77
2023/06/28 06:17:58;;;;;;;4.03;1.17;;;21.50;94.90;;;;;;5050466;28;20518;-77
2023/06/28 06:20:24;;;;;;;6.23;1.10;;;21.50;94.90;;;;;;5031897;28;20180;-76
2023/06/28 06:22:50;;;;;;;4.53;1.00;;;21.60;95.00;;;;;;5048071;28;20261;-76
2023/06/28 06:25:16;;;;;;;4.80;0.90;;;21.60;95.10;;;;;;5049163;28;20177;-76
2023/06/28 06:27:42;;;;;;;2.83;1.00;;;21.60;95.10;;;;;;5020015;28;20650;-76
2023/06/28 06:30:10;;;;;;;4.50;1.27;;;21.70;95.20;;;;;;5011690;28;20576;-76
2023/06/28 06:32:36;;;;;;;5.40;1.17;;;21.70;95.30;;;;;;5028954;28;20194;-76
2023/06/28 06:35:02;;;;;;;2.10;1.00;;;21.80;95.30;;;;;;5011469;28;20626;-76
2023/06/28 06:37:28;;;;;;;5.33;1.37;;;21.80;95.30;;;;;;5029528;28;21206;-77
2023/06/28 06:39:54;;;;;;;3.20;1.10;;;21.90;95.30;;;;;;5011667;28;20607;-77
2023/06/28 06:42:20;;;;;;;3.80;1.20;;;22.00;95.20;;;;;;5025692;28;20631;-77
2023/06/28 06:44:46;;;;;;;5.13;1.60;;;22.00;95.10;;;;;;5014410;28;20610;-77
2023/06/28 06:47:12;;;;;;;4.47;1.93;;;22.10;95.00;;;;;;5030780;28;20708;-76
2023/06/28 06:49:38;;;;;;;4.37;1.60;;;22.10;95.00;;;;;;5015466;28;20176;-77
2023/06/28 06:52:04;;;;;;;3.77;1.00;;;22.20;95.00;;;;;;5031996;28;20241;-76
2023/06/28 06:54:30;;;;;;;4.07;1.53;;;22.20;95.00;;;;;;5016927;28;21188;-77
2023/06/28 06:57:00;;;;;;;4.63;1.20;;;22.20;95.00;;;;;;5014713;28;20588;-77
2023/06/28 06:59:27;;;;;;;3.37;1.40;;;22.30;95.00;;;;;;5049909;28;20619;-76
2023/06/28 07:01:53;;;;;;;3.63;1.60;;;22.30;94.90;;;;;;5001165;28;20650;-76
2023/06/28 07:04:21;;;;;;;5.13;1.40;;;22.40;94.90;;;;;;5035029;28;21224;-76
2023/06/28 07:06:48;;;;;;;3.13;1.07;;;22.30;94.80;;;;;;5018462;28;20576;-76
2023/06/28 07:09:15;;;;;;;3.60;1.57;;;22.40;95.10;;;;;;5034986;28;20614;-77
2023/06/28 07:11:41;;;;;;;4.00;1.10;;;22.40;94.60;;;;;;5052562;28;20975;-76
2023/06/28 07:14:07;;;;;;;2.07;0.80;;;22.40;94.60;;;;;;5034299;28;20571;-77
2023/06/28 07:16:33;;;;;;;4.70;1.17;;;22.40;94.50;;;;;;5053058;28;20563;-78
2023/06/28 07:18:59;;;;;;;4.63;1.33;;;22.30;94.40;;;;;;5034751;28;20606;-77
2023/06/28 07:21:25;;;;;;;2.60;1.40;;;22.30;94.40;;;;;;5017160;28;20967;-76
2023/06/28 07:23:51;;;;;;;2.80;1.40;;;22.30;94.30;;;;;;5052196;28;20606;-78
2023/06/28 07:26:18;;;;;;;3.40;1.10;;;22.30;94.20;;;;;;5052665;28;20567;-78
2023/06/28 07:28:43;;;;;;;3.57;1.10;;;22.30;94.10;;;;;;5020170;28;20199;-78
2023/06/28 07:31:09;;;;;;;4.13;1.10;;;22.30;94.00;;;;;;5035494;28;21390;-78
2023/06/28 07:33:35;;;;;;;9.33;1.33;;;22.40;93.90;;;;;;5018127;28;20193;-79
2023/06/28 07:36:01;;;;;;;3.33;1.27;;;22.40;93.70;;;;;;5052421;28;20609;-78
2023/06/28 07:38:27;;;;;;;4.07;1.13;;;22.40;93.60;;;;;;5052181;28;20532;-79
2023/06/28 07:40:55;;;;;;;4.20;1.20;;;22.30;93.40;;;;;;5033402;28;20576;-78
2023/06/28 07:43:21;;;;;;;3.43;0.83;;;22.30;93.10;;;;;;5033857;28;20656;-78
2023/06/28 07:45:47;;;;;;;2.30;1.60;;;22.40;93.00;;;;;;5052051;28;20595;-77
2023/06/28 07:48:13;;;;;;;5.60;1.20;;;22.40;93.00;;;;;;5033738;28;20265;-78
2023/06/28 07:50:38;;;;;;;3.30;1.00;;;22.40;92.80;;;;;;5017569;28;20164;-78
2023/06/28 07:53:04;;;;;;;2.80;0.90;;;22.40;92.60;;;;;;5051265;28;20195;-78
2023/06/28 07:55:30;;;;;;;3.43;0.90;;;22.50;92.40;;;;;;5017917;28;20177;-78
2023/06/28 07:57:57;;;;;;;2.43;0.93;;;22.50;92.40;;;;;;5033991;28;20990;-78
2023/06/28 08:00:25;;;;;;;5.17;2.10;;;22.60;92.20;;;;;;5033713;28;22238;-78
2023/06/28 08:02:51;;;;;;;5.20;0.90;;;22.60;92.00;;;;;;5033261;28;20631;-78
2023/06/28 08:05:17;;;;;;;3.47;2.40;;;22.70;91.90;;;;;;5035086;28;20632;-78
2023/06/28 08:07:43;;;;;;;4.23;1.10;;;22.70;91.80;;;;;;5036072;28;20297;-78
2023/06/28 08:10:09;;;;;;;2.70;0.73;;;22.70;91.80;;;;;;5033967;28;21305;-78
2023/06/28 08:12:35;;;;;;;2.03;0.80;;;22.70;91.90;;;;;;5032820;28;20214;-78
2023/06/28 08:15:00;;;;;;;2.47;0.90;;;22.70;92.10;;;;;;5033488;28;20645;-78
2023/06/28 08:17:27;;;;;;;3.50;1.00;;;22.70;92.10;;;;;;5017388;28;20181;-78
2023/06/28 08:19:54;;;;;;;5.83;1.10;;;22.70;92.10;;;;;;5033345;28;20578;-78
2023/06/28 08:22:20;;;;;;;2.73;0.80;;;22.80;92.30;;;;;;5032517;28;20203;-78
2023/06/28 08:24:47;;;;;;;3.00;1.13;;;23.00;92.30;;;;;;5050888;28;20623;-77
2023/06/28 08:27:12;;;;;;;4.93;1.40;;;23.10;92.10;;;;;;5051282;28;20635;-78
2023/06/28 08:29:38;;;;;;;3.90;1.63;;;23.20;92.20;;;;;;5017042;28;20592;-78
2023/06/28 08:32:04;;;;;;;3.33;1.20;;;23.30;92.30;;;;;;5050636;28;20275;-77
2023/06/28 08:34:30;;;;;;;2.70;1.03;;;23.40;92.10;;;;;;5033321;28;20173;-78
2023/06/28 08:36:55;;;;;;;5.13;1.20;;;23.50;92.10;;;;;;5033283;28;21143;-78
2023/06/28 08:39:21;;;;;;;2.63;1.27;;;23.60;91.90;;;;;;5033810;28;20181;-78
2023/06/28 08:41:48;;;;;;;3.30;1.00;;;23.60;91.70;;;;;;5032725;28;20169;-78
2023/06/28 08:44:15;;;;;;;3.60;0.97;;;23.70;91.60;;;;;;5053903;28;20653;-78
2023/06/28 08:46:44;;;;;;;3.27;0.90;;;23.70;91.70;;;;;;5033034;28;20932;-78
2023/06/28 08:49:11;;;;;;;2.70;0.83;;;23.80;91.90;;;;;;5032916;28;20690;-77
2023/06/28 08:51:38;;;;;;;3.50;0.80;;;23.80;91.60;;;;;;5015093;28;20615;-78
2023/06/28 08:54:05;;;;;;;5.57;1.20;;;23.80;91.60;;;;;;5050624;28;20618;-78
2023/06/28 08:56:31;;;;;;;1.90;0.80;;;23.70;91.30;;;;;;5031499;28;20628;-78
2023/06/28 08:58:57;;;;;;;2.80;0.80;;;23.70;91.40;;;;;;5037599;28;20679;-78
2023/06/28 09:01:23;;;;;;;2.67;1.03;;;23.70;91.20;;;;;;5030164;28;20699;-78
2023/06/28 09:03:50;;;;;;;3.63;0.97;;;23.60;91.00;;;;;;5012586;28;20665;-76
2023/06/28 09:06:16;;;;;;;2.00;0.83;;;23.70;90.90;;;;;;5012999;28;20173;-76
2023/06/28 09:08:46;;;;;;;2.27;1.00;;;23.60;90.70;;;;;;5030660;28;20678;-77
2023/06/28 09:11:12;;;;;;;2.73;1.03;;;23.60;90.40;;;;;;5031597;28;20595;-77
2023/06/28 09:13:38;;;;;;;2.83;0.80;;;23.60;90.30;;;;;;5015897;28;20727;-77
2023/06/28 09:16:09;;;;;;;2.87;0.90;;;23.50;90.10;;;;;;5032933;28;20227;-77
2023/06/28 09:18:35;;;;;;;3.80;0.97;;;23.50;90.10;;;;;;5050955;28;20575;-76
2023/06/28 09:21:01;;;;;;;3.30;1.00;;;23.30;90.10;;;;;;5051042;28;20982;-77
2023/06/28 09:23:29;;;;;;;4.33;0.90;;;23.30;90.30;;;;;;5048878;28;20655;-77
2023/06/28 09:25:55;;;;;;;3.17;1.10;;;23.30;90.50;;;;;;4999368;28;20607;-77
2023/06/28 09:28:34;;;;;;;4.03;1.30;;;23.30;90.60;;;;;;5050225;28;20718;-77
2023/06/28 09:31:05;;;;;;;3.20;0.80;;;23.40;90.50;;;;;;5031363;28;20584;-77
2023/06/28 09:33:31;;;;;;;3.57;1.13;;;23.50;90.60;;;;;;5032193;28;20669;-77
2023/06/28 09:36:02;;;;;;;2.77;1.10;;;23.60;90.60;;;;;;5032024;28;20606;-77
2023/06/28 09:38:28;;;;;;;4.67;1.17;;;23.70;90.60;;;;;;5012213;28;20611;-76
2023/06/28 09:40:59;;;;;;;3.20;1.17;;;23.90;90.70;;;;;;5028580;28;21146;-76
2023/06/28 09:43:30;;;;;;;2.20;0.90;;;24.10;90.70;;;;;;5042229;28;20726;-76
2023/06/28 09:45:56;;;;;;;2.80;0.87;;;24.30;90.40;;;;;;5015895;28;20587;-76
2023/06/28 09:48:24;;;;;;;2.13;0.90;;;24.50;90.40;;;;;;5032610;28;20635;-76
2023/06/28 09:50:50;;;;;;;4.03;1.60;;;24.70;90.10;;;;;;5015513;28;20188;-76
2023/06/28 09:53:19;;;;;;;2.10;1.00;;;24.90;89.60;;;;;;5031681;28;20980;-76
2023/06/28 09:55:46;;;;;;;6.53;1.10;;;25.10;89.20;;;;;;5035113;28;20487;-76
2023/06/28 09:58:17;;;;;;;5.60;0.90;;;25.40;88.40;;;;;;5020056;28;20680;-75
2023/06/28 10:00:45;;;;;;;6.23;1.23;;;25.50;86.40;;;;;;5013144;28;20927;-75
2023/06/28 10:03:13;;;;;;;4.20;1.17;;;25.60;85.60;;;;;;4995174;28;21199;-75
2023/06/28 10:05:40;;;;;;;2.83;1.00;;;25.70;84.80;;;;;;5019323;28;20652;-74
2023/06/28 10:08:08;;;;;;;2.53;0.90;;;25.70;83.30;;;;;;5049254;28;20635;-75
2023/06/28 10:10:34;;;;;;;3.93;0.90;;;25.70;82.30;;;;;;5049332;28;20941;-75
2023/06/28 10:13:21;;;;;;;4.90;1.07;;;25.70;81.70;;;;;;5031399;28;20655;-75
2023/06/28 10:15:54;;;;;;;4.30;1.30;;;25.60;81.10;;;;;;5027811;28;20600;-74
2023/06/28 10:18:21;;;;;;;4.07;1.00;;;25.50;80.70;;;;;;5029759;28;20587;-75
2023/06/28 10:20:48;;;;;;;4.37;1.37;;;25.50;81.10;;;;;;5012062;28;20610;-76
2023/06/28 10:23:16;;;;;;;3.20;1.10;;;25.50;81.30;;;;;;5029271;28;20624;-76
2023/06/28 10:25:44;;;;;;;3.30;1.17;;;25.50;82.30;;;;;;5024891;28;20673;-76
2023/06/28 10:28:12;;;;;;;4.53;1.30;;;25.50;81.40;;;;;;5032177;28;20741;-76
2023/06/28 10:30:41;;;;;;;6.70;1.60;;;25.50;81.50;;;;;;4998584;28;21142;-76
2023/06/28 10:33:09;;;;;;;2.27;1.20;;;25.50;81.10;;;;;;5015808;28;20612;-76
2023/06/28 10:35:36;;;;;;;2.70;1.00;;;25.50;80.80;;;;;;5051907;28;21307;-76
2023/06/28 10:38:02;;;;;;;2.63;1.10;;;25.50;80.30;;;;;;5052608;28;20623;-76
2023/06/28 10:40:28;;;;;;;2.83;1.20;;;25.40;80.10;;;;;;5034998;28;20688;-76
2023/06/28 10:42:54;;;;;;;4.17;1.20;;;25.40;79.80;;;;;;5052528;28;20709;-77
2023/06/28 10:45:35;;;;;;;5.73;1.70;;;25.30;79.60;;;;;;5035055;28;20698;-75
2023/06/28 10:48:02;;;;;;;2.73;1.00;;;25.40;79.20;;;;;;5052674;28;20622;-75
2023/06/28 10:50:28;;;;;;;2.90;1.00;;;25.40;80.00;;;;;;5053373;28;20928;-76
2023/06/28 10:52:56;;;;;;;2.90;1.40;;;25.40;79.80;;;;;;5035228;28;20772;-76
2023/06/28 10:55:36;;;;;;;3.97;1.27;;;25.30;79.40;;;;;;5052898;28;20613;-76
2023/06/28 10:58:10;;;;;;;2.23;1.07;;;25.30;79.60;;;;;;5035172;28;20867;-76
2023/06/28 11:00:50;;;;;;;4.43;1.27;;;25.30;79.50;;;;;;5018445;28;20606;-76
2023/06/28 11:03:18;;;;;;;5.90;1.40;;;25.30;79.60;;;;;;5052397;28;20665;-77
2023/06/28 11:05:53;;;;;;;3.77;1.60;;;25.30;79.80;;;;;;5034886;28;20987;-76
2023/06/28 11:08:20;;;;;;;4.23;1.27;;;25.30;79.90;;;;;;5053117;28;20607;-76
2023/06/28 11:10:48;;;;;;;5.20;1.40;;;25.40;79.00;;;;;;5019640;28;20595;-76
2023/06/28 11:13:39;;;;;;;7.53;1.50;;;25.20;78.50;;;;;;5033753;28;20630;-76
2023/06/28 11:16:20;;;;;;;3.23;1.20;;;25.10;78.40;;;;;;5052130;28;20679;-76
2023/06/28 11:18:47;;;;;;;3.90;1.27;;;25.00;79.20;;;;;;5034914;28;20603;-76
2023/06/28 11:21:24;;;;;;;3.10;1.30;;;25.00;79.20;;;;;;5051604;28;20619;-76
2023/06/28 11:23:53;;;;;;;6.73;1.43;;;25.00;78.80;;;;;;5034134;28;20618;-76
2023/06/28 11:26:35;;;;;;;6.53;1.70;;;25.00;79.60;;;;;;5034630;28;21035;-76
2023/06/28 11:29:01;;;;;;;3.00;1.40;;;25.10;79.50;;;;;;5034703;28;20650;-76
2023/06/28 11:31:40;;;;;;;5.33;1.10;;;25.20;80.00;;;;;;5033236;28;20590;-77
2023/06/28 11:34:09;;;;;;;3.87;1.20;;;25.30;79.90;;;;;;5052273;28;20594;-76
2023/06/28 11:36:36;;;;;;;4.37;1.27;;;25.30;80.00;;;;;;5017772;28;20649;-76
2023/06/28 11:39:03;;;;;;;3.33;1.00;;;25.50;79.90;;;;;;5017247;28;20611;-75
2023/06/28 11:41:34;;;;;;;4.73;1.37;;;25.50;79.20;;;;;;5051836;28;20575;-76
2023/06/28 11:44:04;;;;;;;4.80;1.50;;;25.50;78.60;;;;;;5033900;28;20564;-76
2023/06/28 11:46:33;;;;;;;6.13;2.00;;;25.60;79.00;;;;;;5034125;28;20579;-75
2023/06/28 11:49:00;;;;;;;7.67;1.23;;;25.80;79.20;;;;;;5017308;28;20647;-76
2023/06/28 11:51:27;;;;;;;7.97;1.40;;;25.90;78.90;;;;;;5033118;28;20579;-76
2023/06/28 11:53:55;;;;;;;3.10;1.50;;;26.10;78.90;;;;;;5017248;28;20623;-75
2023/06/28 11:56:34;;;;;;;5.23;1.73;;;26.20;79.40;;;;;;5017597;28;20583;-75
2023/06/28 11:59:15;;;;;;;5.77;1.40;;;26.40;78.20;;;;;;5013756;28;20592;-76
2023/06/28 12:01:41;;;;;;;5.47;1.60;;;26.60;78.00;;;;;;5013067;28;21146;-75
2023/06/28 12:04:22;;;;;;;3.10;1.40;;;26.80;78.00;;;;;;5013900;28;20622;-75
2023/06/28 12:06:48;;;;;;;3.97;1.60;;;26.80;76.70;;;;;;5013701;28;20599;-76
2023/06/28 12:09:22;;;;;;;3.40;1.40;;;26.90;77.00;;;;;;5031475;28;21287;-76
2023/06/28 12:11:56;;;;;;;3.43;1.50;;;27.00;76.10;;;;;;5050356;28;20639;-76
2023/06/28 12:14:23;;;;;;;5.10;1.70;;;27.20;75.60;;;;;;5050657;28;20591;-75
2023/06/28 12:16:52;;;;;;;3.33;1.20;;;27.20;75.60;;;;;;5033015;28;20584;-76
2023/06/28 12:19:19;;;;;;;2.83;1.17;;;27.30;75.20;;;;;;5033789;28;20575;-76
2023/06/28 12:21:46;;;;;;;3.30;1.60;;;27.40;74.90;;;;;;5032040;28;20591;-75
2023/06/28 12:24:17;;;;;;;4.00;1.30;;;27.30;74.10;;;;;;5035272;28;20588;-75
2023/06/28 12:26:48;;;;;;;5.17;1.50;;;27.20;73.20;;;;;;5033463;28;20619;-76
2023/06/28 12:29:18;;;;;;;6.70;1.77;;;27.20;73.30;;;;;;5032975;28;20729;-78
2023/06/28 12:31:47;;;;;;;3.37;1.30;;;27.20;73.70;;;;;;5032821;28;20671;-79
2023/06/28 12:34:34;;;;;;;4.43;1.30;;;27.30;73.70;;;;;;5050923;28;20606;-78
2023/06/28 12:37:10;;;;;;;3.33;1.13;;;27.40;73.60;;;;;;5051383;28;20571;-78
2023/06/28 12:39:40;;;;;;;5.50;1.30;;;27.60;73.60;;;;;;5032884;28;20995;-78
2023/06/28 12:42:10;;;;;;;3.17;1.30;;;27.70;73.50;;;;;;5032690;28;21523;-78
2023/06/28 12:44:58;;;;;;;3.93;1.77;;;27.90;74.00;;;;;;5050094;28;20567;-78
2023/06/28 12:47:26;;;;;;;3.53;1.60;;;28.00;73.20;;;;;;5051258;28;20615;-75
2023/06/28 12:49:53;;;;;;;6.77;1.90;;;28.20;73.10;;;;;;5032831;28;20653;-75